Time;durP1;ratioP1;P1;durP2;ratioP2;P2;SDS_P1;SDS_P2;PMS_P1;PMS_P2;Temp;Humidity;BMP_temperature;BMP_pressure;BME280_temperature;BME280_humidity;BME280_pressure;Samples;Min_cycle;Max_cycle;Signal;HPM_P1;HPM_P2
2021/08/23 00:00:35;;;;;;;8.57;3.33;;;;;;;;;;5093239;28;20036;-78
2021/08/23 00:03:00;;;;;;;10.05;4.03;;;;;;;;;;5092437;28;20477;-76
2021/08/23 00:05:25;;;;;;;5.60;3.60;;;;;;;;;;5092649;28;20034;-76
2021/08/23 00:07:51;;;;;;;4.65;3.03;;;;;;;;;;5075843;28;20040;-76
2021/08/23 00:10:16;;;;;;;4.55;2.85;;;;;;;;;;5092328;28;20049;-77
2021/08/23 00:12:42;;;;;;;8.40;3.30;;;;;;;;;;5093560;28;20387;-76
2021/08/23 00:15:09;;;;;;;10.48;3.13;;;;;;;;;;5075914;28;20042;-76
2021/08/23 00:17:35;;;;;;;8.98;2.95;;;;;;;;;;5093629;28;20490;-76
2021/08/23 00:20:02;;;;;;;6.85;3.70;;;;;;;;;;5092815;28;20067;-76
2021/08/23 00:24:57;;;;;;;8.88;3.08;;;;;;;;;;5093159;28;20036;-76
2021/08/23 00:27:22;;;;;;;4.43;3.60;;;;;;;;;;5075282;28;20047;-76
2021/08/23 00:29:48;;;;;;;5.18;2.88;;;;;;;;;;5093972;28;20031;-76
2021/08/23 00:32:14;;;;;;;9.35;3.83;;;;;;;;;;5093904;28;20389;-76
2021/08/23 00:34:39;;;;;;;10.48;3.70;;;;;;;;;;5092282;28;20046;-76
2021/08/23 00:37:05;;;;;;;6.47;2.90;;;;;;;;;;5093306;28;20106;-77
2021/08/23 00:39:32;;;;;;;6.10;3.40;;;;;;;;;;5092154;28;20036;-76
2021/08/23 00:41:58;;;;;;;9.73;3.33;;;;;;;;;;5091800;28;20478;-76
2021/08/23 00:44:23;;;;;;;11.60;4.50;;;;;;;;;;5091912;28;20040;-76
2021/08/23 00:46:49;;;;;;;4.95;3.88;;;;;;;;;;5093457;28;20043;-77
2021/08/23 00:49:14;;;;;;;14.45;4.07;;;;;;;;;;5093496;28;20405;-76
2021/08/23 00:51:40;;;;;;;10.30;4.63;;;;;;;;;;5085923;28;20032;-77
2021/08/23 00:54:06;;;;;;;6.60;4.88;;;;;;;;;;5071860;28;20492;-76
2021/08/23 00:56:33;;;;;;;5.40;4.00;;;;;;;;;;5071478;28;20485;-77
2021/08/23 00:58:58;;;;;;;7.90;4.72;;;;;;;;;;5072303;28;20103;-77
2021/08/23 01:01:42;;;;;;;25.27;5.88;;;;;;;;;;5073144;28;20469;-76
2021/08/23 01:04:30;;;;;;;29.48;6.25;;;;;;;;;;5086273;28;20039;-77
2021/08/23 01:06:59;;;;;;;14.40;5.93;;;;;;;;;;5091981;28;20044;-77
2021/08/23 01:09:28;;;;;;;32.50;6.85;;;;;;;;;;5092106;28;20119;-76
2021/08/23 01:11:55;;;;;;;14.50;7.40;;;;;;;;;;5091995;28;20028;-76
2021/08/23 01:14:21;;;;;;;28.65;7.38;;;;;;;;;;5075130;28;20477;-76
2021/08/23 01:16:46;;;;;;;26.95;8.50;;;;;;;;;;5092005;28;20127;-77
2021/08/23 01:19:13;;;;;;;29.75;7.72;;;;;;;;;;5075275;28;20084;-76
2021/08/23 01:21:39;;;;;;;14.40;7.15;;;;;;;;;;5092014;28;20044;-76
2021/08/23 01:24:08;;;;;;;9.13;6.82;;;;;;;;;;5077824;28;20028;-75
2021/08/23 01:26:39;;;;;;;10.30;7.18;;;;;;;;;;5071821;28;20040;-76
2021/08/23 01:29:13;;;;;;;9.63;5.70;;;;;;;;;;5072879;28;20162;-77
2021/08/23 01:31:54;;;;;;;13.90;5.70;;;;;;;;;;5054757;28;20123;-77
2021/08/23 01:34:21;;;;;;;12.20;5.20;;;;;;;;;;5072663;28;20133;-77
2021/08/23 01:36:47;;;;;;;11.75;5.22;;;;;;;;;;5071592;28;20040;-76
2021/08/23 01:39:13;;;;;;;11.00;4.97;;;;;;;;;;5072776;28;20063;-76
2021/08/23 01:41:38;;;;;;;6.88;4.88;;;;;;;;;;5071617;28;20181;-77
2021/08/23 01:44:04;;;;;;;12.82;6.15;;;;;;;;;;5071381;28;20041;-76
2021/08/23 01:46:30;;;;;;;12.65;5.88;;;;;;;;;;5072904;28;20478;-76
2021/08/23 01:49:00;;;;;;;10.80;7.05;;;;;;;;;;5072872;28;20036;-75
2021/08/23 01:51:26;;;;;;;13.05;7.30;;;;;;;;;;5072630;28;20036;-76
2021/08/23 01:53:52;;;;;;;10.88;6.97;;;;;;;;;;5054534;28;20033;-77
2021/08/23 01:56:17;;;;;;;11.15;7.63;;;;;;;;;;5072711;28;20047;-76
2021/08/23 01:58:42;;;;;;;11.27;6.72;;;;;;;;;;5072985;28;20044;-76
2021/08/23 02:01:08;;;;;;;17.30;8.00;;;;;;;;;;5072560;28;20062;-76
2021/08/23 02:03:33;;;;;;;13.32;7.05;;;;;;;;;;5072461;28;20032;-76
2021/08/23 02:05:59;;;;;;;11.02;7.13;;;;;;;;;;5072682;28;20025;-76
2021/08/23 02:08:24;;;;;;;10.70;7.25;;;;;;;;;;5054508;28;20085;-76
2021/08/23 02:10:50;;;;;;;10.43;6.38;;;;;;;;;;5075301;28;20557;-76
2021/08/23 02:13:15;;;;;;;7.82;6.10;;;;;;;;;;5074879;28;20111;-76
2021/08/23 02:15:41;;;;;;;15.05;6.93;;;;;;;;;;5058356;28;20433;-76
2021/08/23 02:18:06;;;;;;;6.03;4.82;;;;;;;;;;5076308;28;20119;-76
2021/08/23 02:20:31;;;;;;;9.25;5.03;;;;;;;;;;5075989;28;20054;-76
2021/08/23 02:22:57;;;;;;;8.38;4.22;;;;;;;;;;5076057;28;20032;-76
2021/08/23 02:25:22;;;;;;;10.00;4.63;;;;;;;;;;5075652;28;20048;-77
2021/08/23 02:27:52;;;;;;;9.32;5.32;;;;;;;;;;5057840;28;20032;-77
2021/08/23 02:30:17;;;;;;;10.70;6.13;;;;;;;;;;5057912;28;20036;-76
2021/08/23 02:32:43;;;;;;;9.43;6.18;;;;;;;;;;5075983;28;20043;-76
2021/08/23 02:35:09;;;;;;;11.65;6.50;;;;;;;;;;5075309;28;20057;-76
2021/08/23 02:37:34;;;;;;;8.93;6.43;;;;;;;;;;5074410;28;20065;-76
2021/08/23 02:40:00;;;;;;;8.57;6.90;;;;;;;;;;5058006;28;20028;-76
2021/08/23 02:42:25;;;;;;;12.52;7.47;;;;;;;;;;5057616;28;20136;-76
2021/08/23 02:44:51;;;;;;;11.73;7.38;;;;;;;;;;5075494;28;20037;-76
2021/08/23 02:47:17;;;;;;;12.30;7.55;;;;;;;;;;5058196;28;20490;-76
2021/08/23 02:49:42;;;;;;;11.02;7.05;;;;;;;;;;5074369;28;20046;-76
2021/08/23 02:52:07;;;;;;;16.95;6.88;;;;;;;;;;5074065;28;20042;-76
2021/08/23 02:54:33;;;;;;;9.32;6.93;;;;;;;;;;5081604;28;20168;-77
2021/08/23 02:56:59;;;;;;;10.95;7.18;;;;;;;;;;5073844;28;20029;-78
2021/08/23 02:59:24;;;;;;;7.95;6.82;;;;;;;;;;5090677;28;20505;-76
2021/08/23 03:01:50;;;;;;;11.68;6.35;;;;;;;;;;5057429;28;20044;-76
2021/08/23 03:04:15;;;;;;;8.38;5.40;;;;;;;;;;5091149;28;20437;-76
2021/08/23 03:06:40;;;;;;;9.55;6.40;;;;;;;;;;5074834;28;20024;-76
2021/08/23 03:09:06;;;;;;;12.30;6.28;;;;;;;;;;5057133;28;20041;-76
2021/08/23 03:11:32;;;;;;;11.05;6.30;;;;;;;;;;5075115;28;20025;-76
2021/08/23 03:13:58;;;;;;;8.48;6.20;;;;;;;;;;5057493;28;20047;-76
2021/08/23 03:16:23;;;;;;;17.33;6.72;;;;;;;;;;5075023;28;20036;-76
2021/08/23 03:18:49;;;;;;;14.10;6.32;;;;;;;;;;5073625;28;20040;-77
2021/08/23 03:21:14;;;;;;;9.70;6.40;;;;;;;;;;5072781;28;20045;-76
2021/08/23 03:23:39;;;;;;;10.50;5.97;;;;;;;;;;5105481;28;20031;-77
2021/08/23 03:26:05;;;;;;;13.02;6.88;;;;;;;;;;5113848;28;20078;-77
2021/08/23 03:28:31;;;;;;;7.88;5.85;;;;;;;;;;5115114;28;20051;-76
2021/08/23 03:30:56;;;;;;;8.20;6.85;;;;;;;;;;5096934;28;20080;-76
2021/08/23 03:33:22;;;;;;;9.65;6.25;;;;;;;;;;5115688;28;20114;-76
2021/08/23 03:35:47;;;;;;;11.52;6.57;;;;;;;;;;5114996;28;20054;-76
2021/08/23 03:38:13;;;;;;;10.38;6.78;;;;;;;;;;5096478;28;20120;-76
2021/08/23 03:40:39;;;;;;;8.45;6.00;;;;;;;;;;5113495;28;20039;-76
2021/08/23 03:43:04;;;;;;;9.18;5.43;;;;;;;;;;5096598;28;20112;-76
2021/08/23 03:45:30;;;;;;;11.02;5.90;;;;;;;;;;5113548;28;20068;-76
2021/08/23 03:47:55;;;;;;;10.82;6.10;;;;;;;;;;5113551;28;20041;-76
2021/08/23 03:50:21;;;;;;;9.32;6.55;;;;;;;;;;5114987;28;20111;-77
2021/08/23 03:52:47;;;;;;;10.90;6.18;;;;;;;;;;5077674;28;20036;-76
2021/08/23 03:55:13;;;;;;;9.32;6.10;;;;;;;;;;5093977;28;20035;-77
2021/08/23 03:57:38;;;;;;;10.30;6.47;;;;;;;;;;5075947;28;20030;-77
2021/08/23 04:00:06;;;;;;;11.63;6.97;;;;;;;;;;5094122;28;20028;-76
2021/08/23 04:02:32;;;;;;;11.52;7.03;;;;;;;;;;5092805;28;20044;-76
2021/08/23 04:04:58;;;;;;;8.07;6.43;;;;;;;;;;5093866;28;20038;-76
2021/08/23 04:07:23;;;;;;;13.95;6.18;;;;;;;;;;5093410;28;20036;-76
2021/08/23 04:09:48;;;;;;;12.82;5.95;;;;;;;;;;5094026;28;20036;-76
2021/08/23 04:12:14;;;;;;;13.77;6.28;;;;;;;;;;5094105;28;20036;-76
2021/08/23 04:14:39;;;;;;;10.50;6.57;;;;;;;;;;5075686;28;20130;-76
2021/08/23 04:17:05;;;;;;;10.38;5.70;;;;;;;;;;5092538;28;20047;-76
2021/08/23 04:19:30;;;;;;;9.07;5.72;;;;;;;;;;5093917;28;20031;-76
2021/08/23 04:21:56;;;;;;;11.02;6.13;;;;;;;;;;5064832;28;20037;-76
2021/08/23 04:24:22;;;;;;;7.47;5.75;;;;;;;;;;5071817;28;20028;-77
2021/08/23 04:26:47;;;;;;;10.25;5.18;;;;;;;;;;5055468;28;20116;-76
2021/08/23 04:29:12;;;;;;;9.07;5.18;;;;;;;;;;5073415;28;20028;-77
2021/08/23 04:31:38;;;;;;;12.05;4.88;;;;;;;;;;5071821;28;20040;-77
2021/08/23 04:34:03;;;;;;;8.68;5.18;;;;;;;;;;5071871;28;20029;-77
2021/08/23 04:36:28;;;;;;;7.75;5.22;;;;;;;;;;5055298;28;20131;-77
2021/08/23 04:38:54;;;;;;;6.85;5.18;;;;;;;;;;5055386;28;20477;-77
2021/08/23 04:41:19;;;;;;;8.40;5.70;;;;;;;;;;5072289;28;20042;-76
2021/08/23 04:43:45;;;;;;;9.25;5.60;;;;;;;;;;5073177;28;20037;-76
2021/08/23 04:46:10;;;;;;;7.38;6.15;;;;;;;;;;5073633;28;20540;-76
2021/08/23 04:48:36;;;;;;;8.63;5.95;;;;;;;;;;5071581;28;20032;-76
2021/08/23 04:51:03;;;;;;;10.32;6.32;;;;;;;;;;5072017;28;20495;-76
2021/08/23 04:53:30;;;;;;;8.32;6.75;;;;;;;;;;5073207;28;20114;-77
2021/08/23 04:55:56;;;;;;;11.80;6.55;;;;;;;;;;5055196;28;20071;-76
2021/08/23 04:58:22;;;;;;;8.90;6.15;;;;;;;;;;5072032;28;20036;-76
2021/08/23 05:00:48;;;;;;;8.77;5.78;;;;;;;;;;5071888;28;20037;-76
2021/08/23 05:03:14;;;;;;;9.98;6.60;;;;;;;;;;5073252;28;20101;-76
2021/08/23 05:05:41;;;;;;;8.45;5.88;;;;;;;;;;5055031;28;20024;-77
2021/08/23 05:08:06;;;;;;;7.20;5.72;;;;;;;;;;5073340;28;20064;-77
2021/08/23 05:10:32;;;;;;;19.58;6.75;;;;;;;;;;5055058;28;20075;-77
2021/08/23 05:12:57;;;;;;;8.35;6.72;;;;;;;;;;5054911;28;20037;-76
2021/08/23 05:15:23;;;;;;;8.60;7.28;;;;;;;;;;5071775;28;20072;-76
2021/08/23 05:17:49;;;;;;;8.80;6.13;;;;;;;;;;5071589;28;20036;-76
2021/08/23 05:20:14;;;;;;;7.28;6.50;;;;;;;;;;5072746;28;20039;-77
2021/08/23 05:22:40;;;;;;;8.50;6.28;;;;;;;;;;5072316;28;20071;-77
2021/08/23 05:25:06;;;;;;;10.60;5.85;;;;;;;;;;5054426;28;20486;-76
2021/08/23 05:27:32;;;;;;;10.77;6.80;;;;;;;;;;5071435;28;20047;-76
2021/08/23 05:30:05;;;;;;;13.95;7.55;;;;;;;;;;5054905;28;20037;-76
2021/08/23 05:32:31;;;;;;;8.73;6.63;;;;;;;;;;5055204;28;20440;-76
2021/08/23 05:34:57;;;;;;;10.65;6.60;;;;;;;;;;5071328;28;20048;-77
2021/08/23 05:37:22;;;;;;;7.18;6.05;;;;;;;;;;5071706;28;20036;-77
2021/08/23 05:39:48;;;;;;;10.40;6.97;;;;;;;;;;5054762;28;20025;-76
2021/08/23 05:42:14;;;;;;;9.50;6.82;;;;;;;;;;5071556;28;20498;-78
2021/08/23 05:44:40;;;;;;;11.63;7.18;;;;;;;;;;5055371;28;20382;-76
2021/08/23 05:47:05;;;;;;;10.73;7.55;;;;;;;;;;5075260;28;20032;-77
2021/08/23 05:49:31;;;;;;;12.23;7.28;;;;;;;;;;5058232;28;20033;-77
2021/08/23 05:51:57;;;;;;;14.43;7.85;;;;;;;;;;5075063;28;20090;-77
2021/08/23 05:54:22;;;;;;;13.77;7.60;;;;;;;;;;5061729;28;20028;-76
2021/08/23 05:56:48;;;;;;;9.07;7.65;;;;;;;;;;5075298;28;20036;-78
2021/08/23 05:59:14;;;;;;;14.32;8.88;;;;;;;;;;5074955;28;20516;-77
2021/08/23 06:01:39;;;;;;;10.95;8.48;;;;;;;;;;5076464;28;20072;-76
2021/08/23 06:04:05;;;;;;;11.35;8.70;;;;;;;;;;5074894;28;20033;-77
2021/08/23 06:06:32;;;;;;;12.70;10.45;;;;;;;;;;5058408;28;20041;-76
2021/08/23 06:08:58;;;;;;;10.98;9.02;;;;;;;;;;5074575;28;20035;-77
2021/08/23 06:11:23;;;;;;;12.93;9.73;;;;;;;;;;5058205;28;20036;-76
2021/08/23 06:13:49;;;;;;;16.08;9.98;;;;;;;;;;5074850;28;20033;-77
2021/08/23 06:16:14;;;;;;;15.50;10.98;;;;;;;;;;5076478;28;20044;-77
2021/08/23 06:18:40;;;;;;;17.90;10.55;;;;;;;;;;5075929;28;20123;-77
2021/08/23 06:21:08;;;;;;;14.05;10.30;;;;;;;;;;5057977;28;20043;-77
2021/08/23 06:23:34;;;;;;;10.38;8.52;;;;;;;;;;5074360;28;20111;-77
2021/08/23 06:25:59;;;;;;;13.52;8.50;;;;;;;;;;5074661;28;20068;-77
2021/08/23 06:28:25;;;;;;;15.18;9.82;;;;;;;;;;5074760;28;20541;-76
2021/08/23 06:30:51;;;;;;;11.30;8.68;;;;;;;;;;5074486;28;20064;-77
2021/08/23 06:33:16;;;;;;;12.10;8.57;;;;;;;;;;5074661;28;20078;-78
2021/08/23 06:35:41;;;;;;;12.48;8.82;;;;;;;;;;5077308;28;20138;-80
2021/08/23 06:38:07;;;;;;;20.35;8.90;;;;;;;;;;5076782;28;20840;-79
2021/08/23 06:40:32;;;;;;;10.00;7.88;;;;;;;;;;5078770;28;20504;-79
2021/08/23 06:42:59;;;;;;;8.52;6.57;;;;;;;;;;5078250;28;20751;-79
2021/08/23 06:45:25;;;;;;;11.27;7.57;;;;;;;;;;5078839;28;20036;-79
2021/08/23 06:47:50;;;;;;;14.32;7.47;;;;;;;;;;5061117;28;20044;-80
2021/08/23 06:50:16;;;;;;;6.80;6.10;;;;;;;;;;5078959;28;20123;-81
2021/08/23 06:52:44;;;;;;;6.20;4.72;;;;;;;;;;5078937;28;20121;-80
2021/08/23 06:55:09;;;;;;;8.80;5.07;;;;;;;;;;5062009;28;20544;-80
2021/08/23 06:57:34;;;;;;;7.63;5.35;;;;;;;;;;5078036;28;20037;-80
2021/08/23 07:00:00;;;;;;;3.92;2.75;;;;;;;;;;5061975;28;20040;-80
2021/08/23 07:02:25;;;;;;;2.00;1.85;;;;;;;;;;5062149;28;20048;-80
2021/08/23 07:04:50;;;;;;;2.70;2.05;;;;;;;;;;5079592;28;20036;-81
2021/08/23 07:07:16;;;;;;;3.60;2.15;;;;;;;;;;5080046;28;20043;-81
2021/08/23 07:09:42;;;;;;;4.28;3.30;;;;;;;;;;5063308;28;20098;-80
2021/08/23 07:12:08;;;;;;;4.80;3.60;;;;;;;;;;5080097;28;20095;-81
2021/08/23 07:14:36;;;;;;;4.10;3.17;;;;;;;;;;5062898;28;20127;-81
2021/08/23 07:17:01;;;;;;;6.07;3.58;;;;;;;;;;5080047;28;20567;-82
2021/08/23 07:19:26;;;;;;;3.92;3.20;;;;;;;;;;5062385;28;20131;-80
2021/08/23 07:21:52;;;;;;;4.72;3.33;;;;;;;;;;5081460;28;20058;-79
2021/08/23 07:24:17;;;;;;;5.45;4.20;;;;;;;;;;5118615;28;20446;-79
2021/08/23 07:26:44;;;;;;;7.75;3.78;;;;;;;;;;5102074;28;20084;-79
2021/08/23 07:29:13;;;;;;;5.95;4.72;;;;;;;;;;5101996;28;20043;-79
2021/08/23 07:31:39;;;;;;;8.55;4.40;;;;;;;;;;5102229;28;20048;-81
2021/08/23 07:34:05;;;;;;;7.43;3.97;;;;;;;;;;5118342;28;20504;-80
2021/08/23 07:36:30;;;;;;;6.00;4.28;;;;;;;;;;5118589;28;20031;-81
2021/08/23 07:38:56;;;;;;;5.45;4.05;;;;;;;;;;5102212;28;20066;-80
2021/08/23 07:41:22;;;;;;;6.68;4.40;;;;;;;;;;5102030;28;20043;-81
2021/08/23 07:43:47;;;;;;;8.82;4.65;;;;;;;;;;5101523;28;20027;-83
2021/08/23 07:46:14;;;;;;;4.85;4.10;;;;;;;;;;5104088;28;20035;-80
2021/08/23 07:48:39;;;;;;;5.18;4.65;;;;;;;;;;5083514;28;20128;-81
2021/08/23 07:51:05;;;;;;;7.22;4.43;;;;;;;;;;5080735;28;20032;-80
2021/08/23 07:53:30;;;;;;;4.43;3.65;;;;;;;;;;5078475;28;20028;-79
2021/08/23 07:55:56;;;;;;;5.10;4.32;;;;;;;;;;5075744;28;20482;-78
2021/08/23 07:58:21;;;;;;;6.32;4.18;;;;;;;;;;5074383;28;20032;-80
2021/08/23 08:00:46;;;;;;;7.03;4.55;;;;;;;;;;5078864;28;20059;-80
2021/08/23 08:03:12;;;;;;;8.90;4.55;;;;;;;;;;5078698;28;20037;-80
2021/08/23 08:05:38;;;;;;;5.47;4.30;;;;;;;;;;5062467;28;20040;-80
2021/08/23 08:08:08;;;;;;;7.80;4.25;;;;;;;;;;5076356;28;20043;-79
2021/08/23 08:10:38;;;;;;;5.95;3.75;;;;;;;;;;5075543;28;20410;-77
2021/08/23 08:13:03;;;;;;;9.10;4.35;;;;;;;;;;5072883;28;20150;-77
2021/08/23 08:15:29;;;;;;;4.10;3.47;;;;;;;;;;5074166;28;20033;-77
2021/08/23 08:17:55;;;;;;;4.07;3.00;;;;;;;;;;5057524;28;20038;-76
2021/08/23 08:20:20;;;;;;;5.32;2.90;;;;;;;;;;5075527;28;20063;-78
2021/08/23 08:22:46;;;;;;;10.10;4.28;;;;;;;;;;5080583;28;20494;-77
2021/08/23 08:25:12;;;;;;;3.83;3.20;;;;;;;;;;5092556;28;20077;-80
2021/08/23 08:27:38;;;;;;;7.25;3.58;;;;;;;;;;5077089;28;20081;-76
2021/08/23 08:30:05;;;;;;;5.35;3.40;;;;;;;;;;5093898;28;20405;-78
2021/08/23 08:32:30;;;;;;;5.78;3.55;;;;;;;;;;5096657;28;20552;-83
2021/08/23 08:34:56;;;;;;;4.00;3.13;;;;;;;;;;5080625;28;20070;-79
2021/08/23 08:37:22;;;;;;;6.38;3.10;;;;;;;;;;5096996;28;20036;-80
2021/08/23 08:39:47;;;;;;;5.47;3.35;;;;;;;;;;5097192;28;20532;-80
2021/08/23 08:42:16;;;;;;;4.47;3.42;;;;;;;;;;5079586;28;20031;-78
2021/08/23 08:44:42;;;;;;;5.32;3.30;;;;;;;;;;5097503;28;20091;-81
2021/08/23 08:47:09;;;;;;;4.43;3.42;;;;;;;;;;5103172;28;20067;-80
2021/08/23 08:49:37;;;;;;;4.20;3.20;;;;;;;;;;5115638;28;20039;-80
2021/08/23 08:52:07;;;;;;;3.63;3.20;;;;;;;;;;5099385;28;20035;-83
2021/08/23 08:54:33;;;;;;;4.50;3.35;;;;;;;;;;5119568;28;20058;-82
2021/08/23 08:57:03;;;;;;;5.45;3.20;;;;;;;;;;5086107;28;20494;-80
2021/08/23 08:59:29;;;;;;;3.17;2.50;;;;;;;;;;5076324;28;20034;-80
2021/08/23 09:01:55;;;;;;;3.47;2.90;;;;;;;;;;5076258;28;20123;-80
2021/08/23 09:04:29;;;;;;;4.10;3.28;;;;;;;;;;5076744;28;20071;-81
2021/08/23 09:06:57;;;;;;;3.17;2.88;;;;;;;;;;5061045;28;20117;-81
2021/08/23 09:09:23;;;;;;;5.10;3.30;;;;;;;;;;5077889;28;20036;-81
2021/08/23 09:12:00;;;;;;;5.05;3.10;;;;;;;;;;5061638;28;20063;-81
2021/08/23 09:14:27;;;;;;;3.90;2.72;;;;;;;;;;5078406;28;20033;-81
2021/08/23 09:16:53;;;;;;;4.70;2.50;;;;;;;;;;5077549;28;20090;-82
2021/08/23 09:19:26;;;;;;;3.75;2.40;;;;;;;;;;5062206;28;20456;-81
2021/08/23 09:22:01;;;;;;;2.60;2.40;;;;;;;;;;5083016;28;20028;-80
2021/08/23 09:24:35;;;;;;;2.60;2.38;;;;;;;;;;5081408;28;20041;-79
2021/08/23 09:27:08;;;;;;;7.03;2.10;;;;;;;;;;5081228;28;20040;-80
2021/08/23 09:29:54;;;;;;;2.92;2.42;;;;;;;;;;5079489;28;20044;-79
2021/08/23 09:32:20;;;;;;;2.53;2.20;;;;;;;;;;5079309;28;20032;-81
2021/08/23 09:34:46;;;;;;;4.80;2.20;;;;;;;;;;5062688;28;20067;-79
2021/08/23 09:37:19;;;;;;;1.95;1.75;;;;;;;;;;5078429;28;20493;-77
2021/08/23 09:39:45;;;;;;;2.95;2.10;;;;;;;;;;5077893;28;20032;-79
2021/08/23 09:42:13;;;;;;;2.30;2.10;;;;;;;;;;5061757;28;20032;-80
2021/08/23 09:44:40;;;;;;;3.10;2.17;;;;;;;;;;5061380;28;20124;-77
2021/08/23 09:47:06;;;;;;;2.78;2.03;;;;;;;;;;5076019;28;20036;-77
2021/08/23 09:49:35;;;;;;;3.05;2.58;;;;;;;;;;5078039;28;20060;-79
2021/08/23 09:52:00;;;;;;;2.40;2.20;;;;;;;;;;5077094;28;20036;-77
2021/08/23 09:54:26;;;;;;;3.03;2.60;;;;;;;;;;5078096;28;20089;-80
2021/08/23 09:56:53;;;;;;;3.92;2.70;;;;;;;;;;5077655;28;20028;-76
2021/08/23 09:59:22;;;;;;;4.35;2.78;;;;;;;;;;5077297;28;20119;-77
2021/08/23 10:01:50;;;;;;;6.72;3.50;;;;;;;;;;5076902;28;20036;-77
2021/08/23 10:04:17;;;;;;;4.55;3.15;;;;;;;;;;5078071;28;20086;-80
2021/08/23 10:06:45;;;;;;;5.25;3.40;;;;;;;;;;5078325;28;20074;-83
2021/08/23 10:09:17;;;;;;;3.78;3.00;;;;;;;;;;5060138;28;20370;-84
2021/08/23 10:11:42;;;;;;;5.80;3.40;;;;;;;;;;5062883;28;20039;-83
2021/08/23 10:14:08;;;;;;;4.10;3.30;;;;;;;;;;5079151;28;20029;-83
2021/08/23 10:16:35;;;;;;;4.70;3.45;;;;;;;;;;5079823;28;20060;-82
2021/08/23 10:19:01;;;;;;;6.00;3.53;;;;;;;;;;5063656;28;20028;-82
2021/08/23 10:21:27;;;;;;;4.85;3.88;;;;;;;;;;5063921;28;20448;-82
2021/08/23 10:23:54;;;;;;;10.40;4.55;;;;;;;;;;5081490;28;20050;-83
2021/08/23 10:26:20;;;;;;;10.05;5.05;;;;;;;;;;5103147;28;20039;-82
2021/08/23 10:28:48;;;;;;;8.38;5.03;;;;;;;;;;5099210;28;20047;-81
2021/08/23 10:31:15;;;;;;;11.25;5.55;;;;;;;;;;5089430;28;20108;-81
2021/08/23 10:33:43;;;;;;;5.60;4.82;;;;;;;;;;5102236;28;20095;-81
2021/08/23 10:36:12;;;;;;;13.07;6.47;;;;;;;;;;5119171;28;20096;-80
2021/08/23 10:38:38;;;;;;;6.65;4.75;;;;;;;;;;5119488;28;20031;-81
2021/08/23 10:41:12;;;;;;;8.90;5.40;;;;;;;;;;5081273;28;20032;-80
2021/08/23 10:43:56;;;;;;;5.75;4.80;;;;;;;;;;5079631;28;20032;-81
2021/08/23 10:46:25;;;;;;;8.70;5.32;;;;;;;;;;5078969;28;20044;-80
2021/08/23 10:48:52;;;;;;;6.38;4.88;;;;;;;;;;5078486;28;20047;-80
2021/08/23 10:51:35;;;;;;;8.60;4.93;;;;;;;;;;5062584;28;20033;-80
2021/08/23 10:54:01;;;;;;;7.43;5.60;;;;;;;;;;5078826;28;20032;-80
2021/08/23 10:56:38;;;;;;;8.18;4.68;;;;;;;;;;5062230;28;20044;-81
2021/08/23 10:59:15;;;;;;;6.35;5.43;;;;;;;;;;5081315;28;20040;-80
2021/08/23 11:01:55;;;;;;;6.40;5.10;;;;;;;;;;5082047;28;20032;-80
2021/08/23 11:04:32;;;;;;;7.20;4.97;;;;;;;;;;5081964;28;20067;-80
2021/08/23 11:07:02;;;;;;;8.32;5.20;;;;;;;;;;5077998;28;20037;-80
2021/08/23 11:09:35;;;;;;;7.47;5.10;;;;;;;;;;5078491;28;20032;-80
2021/08/23 11:12:16;;;;;;;9.43;5.05;;;;;;;;;;5076452;28;20040;-79
2021/08/23 11:14:52;;;;;;;6.05;4.63;;;;;;;;;;5078688;28;20066;-80
2021/08/23 11:17:45;;;;;;;10.75;5.15;;;;;;;;;;5078916;28;20032;-82
2021/08/23 11:20:11;;;;;;;9.15;5.97;;;;;;;;;;5062066;28;20047;-81
2021/08/23 11:22:36;;;;;;;7.07;5.35;;;;;;;;;;5078444;28;20028;-79
2021/08/23 11:25:04;;;;;;;8.80;5.18;;;;;;;;;;5058023;28;20036;-77
2021/08/23 11:27:29;;;;;;;5.25;4.68;;;;;;;;;;5059461;28;20036;-77
2021/08/23 11:29:56;;;;;;;7.90;4.65;;;;;;;;;;5081743;28;20086;-82
2021/08/23 11:32:27;;;;;;;7.32;5.03;;;;;;;;;;5062387;28;20042;-82
2021/08/23 11:34:55;;;;;;;6.75;4.32;;;;;;;;;;5079000;28;20041;-82
2021/08/23 11:37:24;;;;;;;6.75;4.50;;;;;;;;;;5079864;28;20028;-83
2021/08/23 11:40:01;;;;;;;6.82;4.57;;;;;;;;;;5081408;28;20040;-81
2021/08/23 11:42:26;;;;;;;5.93;4.32;;;;;;;;;;5062175;28;20040;-83
2021/08/23 11:44:54;;;;;;;10.50;4.78;;;;;;;;;;5062522;28;20033;-81
2021/08/23 11:47:29;;;;;;;9.52;4.40;;;;;;;;;;5062437;28;20037;-81
2021/08/23 11:49:55;;;;;;;;;;;;;;;;;;5079559;28;20448;-82
2021/08/23 11:52:20;;;;;;;4.97;3.80;;;;;;;;;;5088751;28;19908;-82
2021/08/23 11:54:48;;;;;;;7.90;3.47;;;;;;;;;;5096048;28;20115;-82
2021/08/23 11:57:17;;;;;;;5.38;3.28;;;;;;;;;;5078056;28;20378;-81
2021/08/23 12:00:14;;;;;;;6.65;3.33;;;;;;;;;;5077877;28;20036;-80
2021/08/23 12:02:39;;;;;;;6.32;3.60;;;;;;;;;;5057074;28;20048;-81
2021/08/23 12:05:06;;;;;;;4.78;3.10;;;;;;;;;;5078570;28;20037;-80
2021/08/23 12:07:41;;;;;;;6.00;3.55;;;;;;;;;;5084706;28;20039;-80
2021/08/23 12:10:07;;;;;;;6.70;3.20;;;;;;;;;;5092136;28;20058;-80
2021/08/23 12:12:33;;;;;;;4.32;2.85;;;;;;;;;;5079860;28;20024;-80
2021/08/23 12:15:01;;;;;;;10.77;4.38;;;;;;;;;;5090988;28;20040;-81
2021/08/23 12:17:30;;;;;;;5.68;2.40;;;;;;;;;;5060353;28;20500;-80
2021/08/23 12:20:06;;;;;;;3.75;2.38;;;;;;;;;;5089580;28;20405;-81
2021/08/23 12:22:32;;;;;;;5.18;2.30;;;;;;;;;;5090405;28;20028;-79
2021/08/23 12:25:02;;;;;;;3.35;2.08;;;;;;;;;;5088409;28;20059;-82
2021/08/23 12:27:29;;;;;;;3.83;2.00;;;;;;;;;;5070952;28;20478;-83
2021/08/23 12:29:54;;;;;;;3.13;1.70;;;;;;;;;;5084332;28;20043;-79
2021/08/23 12:32:20;;;;;;;4.25;2.50;;;;;;;;;;5062133;28;20386;-82
2021/08/23 12:34:47;;;;;;;4.63;2.20;;;;;;;;;;5059871;28;20051;-79
2021/08/23 12:37:14;;;;;;;3.67;1.70;;;;;;;;;;5074857;28;20036;-81
2021/08/23 12:39:44;;;;;;;4.38;1.85;;;;;;;;;;5076133;28;20505;-82
2021/08/23 12:42:09;;;;;;;3.20;1.85;;;;;;;;;;5059318;28;20516;-82
2021/08/23 12:44:35;;;;;;;6.88;1.80;;;;;;;;;;5077450;28;20060;-83
2021/08/23 12:47:01;;;;;;;5.55;1.60;;;;;;;;;;5061954;28;20040;-84
2021/08/23 12:49:27;;;;;;;5.07;2.10;;;;;;;;;;5077426;28;20047;-84
2021/08/23 12:51:53;;;;;;;6.18;1.90;;;;;;;;;;5062057;28;20111;-84
2021/08/23 12:54:21;;;;;;;2.90;1.50;;;;;;;;;;5076146;28;20025;-81
2021/08/23 12:56:47;;;;;;;4.53;1.85;;;;;;;;;;5080437;28;20032;-83
2021/08/23 12:59:13;;;;;;;3.85;1.60;;;;;;;;;;5080218;28;20040;-83
2021/08/23 13:01:38;;;;;;;5.40;2.00;;;;;;;;;;5096343;28;20046;-84
2021/08/23 13:04:05;;;;;;;4.70;2.15;;;;;;;;;;5080549;28;20157;-84
2021/08/23 13:06:31;;;;;;;2.97;1.65;;;;;;;;;;5097455;28;20059;-82
2021/08/23 13:08:58;;;;;;;6.43;1.63;;;;;;;;;;5097499;28;20481;-83
2021/08/23 13:11:23;;;;;;;2.95;1.77;;;;;;;;;;5095529;28;20098;-78
2021/08/23 13:13:49;;;;;;;4.13;2.05;;;;;;;;;;5095571;28;20032;-79
2021/08/23 13:16:14;;;;;;;1.63;1.40;;;;;;;;;;5094709;28;20032;-80
2021/08/23 13:18:40;;;;;;;4.68;2.10;;;;;;;;;;5077060;28;20032;-78
2021/08/23 13:21:07;;;;;;;3.17;1.80;;;;;;;;;;5096541;28;20032;-83
2021/08/23 13:23:34;;;;;;;3.88;1.65;;;;;;;;;;5078231;28;20032;-83
2021/08/23 13:26:00;;;;;;;5.35;1.73;;;;;;;;;;5094897;28;20051;-83
2021/08/23 13:28:27;;;;;;;2.50;1.45;;;;;;;;;;5096408;28;20549;-80
2021/08/23 13:30:52;;;;;;;1.75;1.58;;;;;;;;;;5096914;28;20536;-81
2021/08/23 13:33:18;;;;;;;1.92;1.20;;;;;;;;;;5078754;28;20052;-83
2021/08/23 13:35:44;;;;;;;4.25;1.65;;;;;;;;;;5079181;28;20142;-84
2021/08/23 13:38:12;;;;;;;5.60;2.78;;;;;;;;;;5094843;28;20031;-84
2021/08/23 13:40:40;;;;;;;2.53;1.60;;;;;;;;;;5097962;28;20474;-82
2021/08/23 13:43:11;;;;;;;7.90;1.48;;;;;;;;;;5079914;28;20036;-83
2021/08/23 13:45:37;;;;;;;6.10;1.60;;;;;;;;;;5079742;28;20036;-83
2021/08/23 13:48:07;;;;;;;4.40;1.40;;;;;;;;;;5080402;28;20039;-83
2021/08/23 13:50:33;;;;;;;2.05;1.30;;;;;;;;;;5096431;28;20039;-83
2021/08/23 13:53:01;;;;;;;3.38;1.30;;;;;;;;;;5098581;28;20036;-83
2021/08/23 13:55:27;;;;;;;5.85;1.27;;;;;;;;;;5079411;28;20028;-83
2021/08/23 13:57:52;;;;;;;2.03;1.20;;;;;;;;;;5063246;28;20090;-82
2021/08/23 14:00:18;;;;;;;2.00;1.33;;;;;;;;;;5080327;28;20036;-83
2021/08/23 14:02:43;;;;;;;1.50;1.17;;;;;;;;;;5098224;28;20040;-83
2021/08/23 14:05:09;;;;;;;1.85;1.10;;;;;;;;;;5081375;28;20070;-83
2021/08/23 14:07:35;;;;;;;2.88;1.20;;;;;;;;;;5101139;28;20036;-84
2021/08/23 14:10:02;;;;;;;3.63;1.25;;;;;;;;;;5099951;28;20032;-87
2021/08/23 14:12:28;;;;;;;3.25;1.17;;;;;;;;;;5081162;28;20065;-82
2021/08/23 14:14:53;;;;;;;2.28;1.38;;;;;;;;;;5082393;28;20036;-82
2021/08/23 14:17:19;;;;;;;2.83;1.25;;;;;;;;;;5082906;28;20115;-81
2021/08/23 14:19:44;;;;;;;2.40;1.38;;;;;;;;;;5099706;28;20028;-81
2021/08/23 14:22:10;;;;;;;7.05;1.33;;;;;;;;;;5100142;28;20036;-81
2021/08/23 14:24:35;;;;;;;7.07;1.17;;;;;;;;;;5090440;28;20037;-79
2021/08/23 14:27:02;;;;;;;3.05;1.38;;;;;;;;;;5083641;28;20036;-79
2021/08/23 14:29:27;;;;;;;4.50;1.58;;;;;;;;;;5079297;28;20141;-79
2021/08/23 14:31:53;;;;;;;4.93;1.40;;;;;;;;;;5062822;28;20294;-80
2021/08/23 14:34:18;;;;;;;3.97;1.05;;;;;;;;;;5078972;28;20053;-79
2021/08/23 14:36:44;;;;;;;1.98;1.05;;;;;;;;;;5078586;28;20118;-80
2021/08/23 14:39:10;;;;;;;3.15;0.95;;;;;;;;;;5079691;28;20115;-80